createdAt,value
2023-01-25T00:02:00.021Z,30.73
2023-01-25T00:04:29.139Z,24.80
2023-01-25T00:06:58.581Z,24.23
2023-01-25T00:09:27.912Z,23.80
2023-01-25T00:11:58.316Z,26.40
2023-01-25T00:14:28.719Z,25.30
2023-01-25T00:16:57.709Z,29.10
2023-01-25T00:19:26.398Z,25.93
2023-01-25T00:21:55.654Z,30.73
2023-01-25T00:24:26.007Z,26.80
2023-01-25T00:26:54.959Z,24.90
2023-01-25T00:29:23.846Z,27.63
2023-01-25T00:32:00.189Z,31.83
2023-01-25T00:34:46.851Z,25.93
2023-01-25T00:37:43.430Z,24.77
2023-01-25T00:40:16.060Z,30.63
2023-01-25T00:42:44.965Z,39.73
2023-01-25T00:45:14.229Z,28.37
2023-01-25T00:47:44.363Z,28.03
2023-01-25T00:50:13.303Z,35.17
2023-01-25T00:52:42.365Z,29.93
2023-01-25T00:55:11.363Z,39.00
2023-01-25T00:57:40.189Z,27.40
2023-01-25T01:00:10.494Z,30.00
2023-01-25T01:02:39.482Z,30.43
2023-01-25T01:05:10.856Z,41.03
2023-01-25T01:07:40.127Z,26.77
2023-01-25T01:10:10.159Z,26.93
2023-01-25T01:12:38.999Z,28.90
2023-01-25T01:15:09.526Z,26.40
2023-01-25T01:17:38.512Z,27.30
2023-01-25T01:20:09.912Z,31.57
2023-01-25T01:22:38.823Z,25.70
2023-01-25T01:25:09.227Z,43.60
2023-01-25T01:27:38.551Z,26.57
2023-01-25T01:30:08.996Z,31.47
2023-01-25T01:32:37.910Z,34.00
2023-01-25T01:35:08.101Z,32.53
2023-01-25T01:37:38.597Z,24.97
2023-01-25T01:40:09.536Z,32.33
2023-01-25T01:42:59.963Z,36.00
2023-01-25T01:45:51.699Z,35.37
2023-01-25T01:48:30.894Z,31.80
2023-01-25T01:51:05.135Z,25.73
2023-01-25T01:53:36.557Z,34.07
2023-01-25T01:56:09.596Z,30.00
2023-01-25T01:58:38.668Z,30.43
2023-01-25T02:01:07.613Z,30.60
2023-01-25T02:03:37.534Z,30.53
2023-01-25T02:06:11.735Z,29.73
2023-01-25T02:08:43.707Z,29.63
2023-01-25T02:11:14.372Z,36.93
2023-01-25T02:13:45.958Z,27.90
2023-01-25T02:16:18.259Z,28.93
2023-01-25T02:18:47.243Z,28.90
2023-01-25T02:21:16.236Z,42.13
2023-01-25T02:23:54.781Z,34.47
2023-01-25T02:26:26.000Z,39.50
2023-01-25T02:28:59.937Z,29.63
2023-01-25T02:31:29.220Z,30.77
2023-01-25T02:33:58.429Z,36.97
2023-01-25T02:36:29.908Z,29.20
2023-01-25T02:39:02.047Z,33.07
2023-01-25T02:41:37.416Z,29.73
2023-01-25T02:44:09.219Z,37.10
2023-01-25T02:46:39.847Z,35.20
2023-01-25T02:49:10.538Z,35.47
2023-01-25T02:51:44.317Z,31.73
2023-01-25T02:54:14.880Z,38.70
2023-01-25T02:56:45.380Z,35.43
2023-01-25T02:59:14.293Z,41.30
2023-01-25T03:01:45.062Z,31.40
2023-01-25T03:04:13.945Z,32.43
2023-01-25T03:06:45.227Z,24.07
2023-01-25T03:09:14.435Z,32.27
2023-01-25T03:11:44.825Z,41.63
2023-01-25T03:14:13.762Z,42.97
2023-01-25T03:16:42.816Z,29.17
2023-01-25T03:19:11.809Z,31.63
2023-01-25T03:21:42.325Z,39.63
2023-01-25T03:24:14.442Z,32.40
2023-01-25T03:27:01.889Z,31.57
2023-01-25T03:29:30.988Z,34.03
2023-01-25T03:31:59.957Z,27.70
2023-01-25T03:34:28.987Z,35.80
2023-01-25T03:36:58.133Z,33.40
2023-01-25T03:39:27.412Z,34.10
2023-01-25T03:41:58.210Z,39.27
2023-01-25T03:44:27.594Z,38.27
2023-01-25T03:46:58.050Z,28.63
2023-01-25T03:49:28.229Z,34.20
2023-01-25T03:51:58.108Z,29.13
2023-01-25T03:54:28.541Z,32.23
2023-01-25T03:56:58.845Z,34.20
2023-01-25T03:59:27.737Z,34.37
2023-01-25T04:01:56.795Z,30.97
2023-01-25T04:04:25.862Z,39.30
2023-01-25T04:06:54.956Z,31.53
2023-01-25T04:09:23.867Z,33.33
2023-01-25T04:11:53.406Z,33.87
2023-01-25T04:14:42.522Z,39.20
2023-01-25T04:17:13.067Z,29.50
2023-01-25T04:19:44.855Z,32.97
2023-01-25T04:22:14.263Z,39.70
2023-01-25T04:24:43.078Z,38.93
2023-01-25T04:27:12.175Z,40.50
2023-01-25T04:29:42.529Z,37.50
2023-01-25T04:32:11.775Z,38.67
2023-01-25T04:34:40.628Z,34.13
2023-01-25T04:37:09.407Z,41.07
2023-01-25T04:39:38.298Z,40.57
2023-01-25T04:42:07.313Z,43.77
2023-01-25T04:44:36.616Z,34.03
2023-01-25T04:47:07.244Z,37.23
2023-01-25T04:49:36.511Z,41.10
2023-01-25T04:52:06.103Z,42.23
2023-01-25T04:54:35.280Z,30.67
2023-01-25T04:57:04.143Z,41.17
2023-01-25T04:59:38.632Z,40.27
2023-01-25T05:02:08.845Z,33.60
2023-01-25T05:04:37.778Z,37.77
2023-01-25T05:07:06.952Z,34.53
2023-01-25T05:09:36.006Z,35.67
2023-01-25T05:12:11.512Z,33.37
2023-01-25T05:14:40.653Z,39.97
2023-01-25T05:17:11.611Z,35.20
2023-01-25T05:19:40.513Z,36.00
2023-01-25T05:22:13.774Z,34.07
2023-01-25T05:24:42.934Z,39.07
2023-01-25T05:27:11.542Z,36.70
2023-01-25T05:29:41.997Z,36.03
2023-01-25T05:32:14.331Z,36.77
2023-01-25T05:34:50.131Z,29.07
2023-01-25T05:37:21.185Z,33.80
2023-01-25T05:39:50.065Z,37.30
2023-01-25T05:42:20.598Z,41.27
2023-01-25T05:44:49.366Z,30.67
2023-01-25T05:47:19.701Z,42.13
2023-01-25T05:49:48.686Z,41.33
2023-01-25T05:52:18.422Z,38.03
2023-01-25T05:54:47.418Z,37.90
2023-01-25T05:57:17.082Z,44.47
2023-01-25T05:59:45.971Z,32.63
2023-01-25T06:02:15.075Z,40.50
2023-01-25T06:04:45.484Z,39.63
2023-01-25T06:07:14.537Z,38.50
2023-01-25T06:09:43.475Z,39.37
2023-01-25T06:12:12.466Z,35.90
2023-01-25T06:14:41.339Z,36.90
2023-01-25T06:17:11.334Z,41.23
2023-01-25T06:19:40.095Z,42.10
2023-01-25T06:22:11.798Z,34.83
2023-01-25T06:24:40.647Z,44.93
2023-01-25T06:27:12.472Z,31.53
2023-01-25T06:29:41.383Z,38.77
2023-01-25T06:32:10.488Z,37.67
2023-01-25T06:34:39.747Z,35.80
2023-01-25T06:37:10.088Z,37.37
2023-01-25T06:39:38.893Z,31.90
2023-01-25T06:42:07.810Z,38.27
2023-01-25T06:44:36.962Z,31.23
2023-01-25T06:47:06.354Z,32.90
2023-01-25T06:49:35.317Z,31.47
2023-01-25T06:52:04.655Z,26.90
2023-01-25T06:54:35.372Z,38.83
2023-01-25T06:57:04.992Z,34.00
2023-01-25T06:59:36.987Z,32.73
2023-01-25T07:02:06.359Z,39.30
2023-01-25T07:04:35.273Z,34.13
2023-01-25T07:07:04.028Z,35.07
2023-01-25T07:09:34.178Z,40.13
2023-01-25T07:12:04.905Z,38.80
2023-01-25T07:14:35.345Z,39.80
2023-01-25T07:17:04.178Z,36.40
2023-01-25T07:19:33.126Z,32.90
2023-01-25T07:22:02.288Z,38.37
2023-01-25T07:24:31.234Z,37.73
2023-01-25T07:27:01.419Z,35.97
2023-01-25T07:29:30.291Z,37.33
2023-01-25T07:31:59.146Z,38.03
2023-01-25T07:34:29.000Z,45.50
2023-01-25T07:36:58.090Z,36.50
2023-01-25T07:39:27.007Z,38.27
2023-01-25T07:41:55.757Z,42.83
2023-01-25T07:44:25.983Z,40.07
2023-01-25T07:46:55.290Z,34.70
2023-01-25T07:49:24.419Z,34.67
2023-01-25T07:51:53.119Z,32.33
2023-01-25T07:54:21.994Z,42.47
2023-01-25T07:56:50.833Z,41.30
2023-01-25T07:59:19.620Z,50.17
2023-01-25T08:01:49.819Z,45.40
2023-01-25T08:04:18.727Z,40.03
2023-01-25T08:06:47.353Z,40.50
2023-01-25T08:09:20.696Z,40.03
2023-01-25T08:11:50.032Z,40.40
2023-01-25T08:14:18.801Z,43.37
2023-01-25T08:16:47.625Z,37.20
2023-01-25T08:19:20.228Z,49.30
2023-01-25T08:21:49.626Z,46.97
2023-01-25T08:24:20.673Z,42.37
2023-01-25T08:26:49.635Z,36.93
2023-01-25T08:29:18.849Z,48.70
2023-01-25T08:31:47.740Z,40.43
2023-01-25T08:34:18.172Z,51.87
2023-01-25T08:36:47.302Z,36.70
2023-01-25T08:39:17.906Z,52.27
2023-01-25T08:41:46.618Z,36.63
2023-01-25T08:44:15.273Z,61.57
2023-01-25T08:46:45.047Z,40.20
2023-01-25T08:49:13.798Z,55.50
2023-01-25T08:51:44.061Z,37.30
2023-01-25T08:54:13.983Z,43.43
2023-01-25T08:56:43.099Z,42.63
2023-01-25T08:59:13.584Z,42.70
2023-01-25T09:01:43.667Z,47.43
2023-01-25T09:04:12.535Z,42.33
2023-01-25T09:06:41.596Z,56.87
2023-01-25T09:09:13.707Z,43.97
2023-01-25T09:11:42.482Z,44.13
2023-01-25T09:14:11.337Z,46.77
2023-01-25T09:16:40.105Z,43.63
2023-01-25T09:19:08.783Z,40.03
2023-01-25T09:21:37.741Z,43.40
2023-01-25T09:24:08.351Z,45.60
2023-01-25T09:26:42.799Z,46.97
2023-01-25T09:29:12.705Z,49.20
2023-01-25T09:31:44.184Z,36.00
2023-01-25T09:34:14.563Z,41.80
2023-01-25T09:36:43.588Z,45.03
2023-01-25T09:39:13.343Z,41.00
2023-01-25T09:42:15.645Z,43.93
2023-01-25T09:45:06.989Z,51.43
2023-01-25T09:47:44.759Z,36.77
2023-01-25T09:50:26.765Z,49.07
2023-01-25T09:53:17.512Z,42.40
2023-01-25T09:55:54.020Z,45.67
2023-01-25T09:58:31.991Z,45.60
2023-01-25T10:01:14.521Z,48.50
2023-01-25T10:03:51.439Z,47.50
2023-01-25T10:06:24.345Z,49.70
2023-01-25T10:09:01.900Z,42.43
2023-01-25T10:11:32.742Z,53.37
2023-01-25T10:14:02.947Z,43.67
2023-01-25T10:16:38.619Z,50.43
2023-01-25T10:19:20.252Z,42.00
2023-01-25T10:21:52.577Z,49.03
2023-01-25T10:24:38.094Z,56.77
2023-01-25T10:27:21.946Z,41.03
2023-01-25T10:29:57.560Z,46.80
2023-01-25T10:32:31.935Z,41.73
2023-01-25T10:35:22.752Z,42.43
2023-01-25T10:38:02.989Z,36.73
2023-01-25T10:40:39.748Z,57.87
2023-01-25T10:43:16.461Z,43.97
2023-01-25T10:45:46.689Z,46.37
2023-01-25T10:48:20.804Z,55.03
2023-01-25T10:50:52.840Z,46.43
2023-01-25T10:53:31.052Z,49.60
2023-01-25T10:56:23.347Z,41.63
2023-01-25T10:58:55.446Z,43.53
2023-01-25T11:01:30.377Z,53.67
2023-01-25T11:03:59.739Z,45.43
2023-01-25T11:06:34.455Z,52.10
2023-01-25T11:09:23.966Z,44.47
2023-01-25T11:11:56.789Z,46.03
2023-01-25T11:14:27.651Z,51.53
2023-01-25T11:16:59.340Z,47.73
2023-01-25T11:19:32.929Z,46.13
2023-01-25T11:22:03.693Z,43.80
2023-01-25T11:24:34.726Z,45.67
2023-01-25T11:27:19.236Z,47.60
2023-01-25T11:30:07.998Z,43.33
2023-01-25T11:32:39.926Z,53.10
2023-01-25T11:35:15.024Z,40.73
2023-01-25T11:37:59.796Z,49.20
2023-01-25T11:40:35.493Z,47.90
2023-01-25T11:43:17.125Z,47.20
2023-01-25T11:46:03.724Z,51.13
2023-01-25T11:49:15.341Z,49.23
2023-01-25T11:51:52.889Z,43.70
2023-01-25T11:54:37.486Z,52.57
2023-01-25T11:57:17.696Z,48.10
2023-01-25T12:00:01.504Z,45.07
2023-01-25T12:03:02.742Z,54.57
2023-01-25T12:05:50.930Z,46.27
2023-01-25T12:08:43.516Z,56.67
2023-01-25T12:11:25.506Z,51.43
2023-01-25T12:14:05.417Z,43.33
2023-01-25T12:16:52.611Z,40.73
2023-01-25T12:19:38.769Z,46.53
2023-01-25T12:22:32.397Z,49.20
2023-01-25T12:25:11.391Z,54.57
2023-01-25T12:27:51.125Z,49.63
2023-01-25T12:30:27.201Z,57.73
2023-01-25T12:33:13.938Z,61.13
2023-01-25T12:35:47.986Z,52.03
2023-01-25T12:38:24.217Z,49.03
2023-01-25T12:40:56.725Z,45.60
2023-01-25T12:43:30.620Z,53.03
2023-01-25T12:46:04.312Z,43.27
2023-01-25T12:48:36.807Z,50.63
2023-01-25T12:51:06.212Z,49.03
2023-01-25T12:53:40.721Z,57.03
2023-01-25T12:56:19.258Z,43.53
2023-01-25T12:58:56.176Z,42.83
2023-01-25T13:01:33.906Z,55.50
2023-01-25T13:04:17.327Z,54.43
2023-01-25T13:06:51.358Z,47.50
2023-01-25T13:09:30.003Z,44.23
2023-01-25T13:12:00.936Z,46.37
2023-01-25T13:14:31.812Z,56.60
2023-01-25T13:17:13.687Z,41.77
2023-01-25T13:19:43.672Z,48.97
2023-01-25T13:22:38.827Z,59.00
2023-01-25T13:25:21.633Z,41.50
2023-01-25T13:28:32.371Z,51.67
2023-01-25T13:31:01.310Z,43.07
2023-01-25T13:33:37.408Z,52.90
2023-01-25T13:36:39.864Z,37.30
2023-01-25T13:39:42.771Z,45.27
2023-01-25T13:42:23.817Z,51.10
2023-01-25T13:44:55.092Z,48.53
2023-01-25T13:47:26.178Z,51.17
2023-01-25T13:50:01.355Z,54.13
2023-01-25T13:52:32.358Z,58.10
2023-01-25T13:55:01.248Z,56.30
2023-01-25T13:57:33.077Z,57.63
2023-01-25T14:00:10.743Z,42.07
2023-01-25T14:02:41.725Z,52.53
2023-01-25T14:05:20.134Z,53.73
2023-01-25T14:07:50.479Z,44.90
2023-01-25T14:10:24.180Z,51.00
2023-01-25T14:12:59.261Z,48.07
2023-01-25T14:15:29.719Z,50.20
2023-01-25T14:18:16.729Z,57.20
2023-01-25T14:20:46.629Z,44.43
2023-01-25T14:23:26.337Z,51.13
2023-01-25T14:25:59.195Z,48.27
2023-01-25T14:28:30.999Z,52.90
2023-01-25T14:31:01.392Z,41.40
2023-01-25T14:33:32.276Z,44.47
2023-01-25T14:36:16.397Z,47.23
2023-01-25T14:38:52.736Z,45.30
2023-01-25T14:41:25.678Z,42.03
2023-01-25T14:43:58.132Z,43.13
2023-01-25T14:46:29.769Z,52.47
2023-01-25T14:49:25.758Z,45.07
2023-01-25T14:52:06.359Z,57.43
2023-01-25T14:54:38.005Z,62.27
2023-01-25T14:57:08.418Z,46.57
2023-01-25T14:59:41.107Z,48.70
2023-01-25T15:02:22.655Z,46.07
2023-01-25T15:05:10.814Z,37.80
2023-01-25T15:07:46.376Z,49.43
2023-01-25T15:10:20.825Z,48.53
2023-01-25T15:13:12.445Z,50.20
2023-01-25T15:15:55.386Z,51.10
2023-01-25T15:18:42.423Z,45.53
2023-01-25T15:21:13.133Z,40.57
2023-01-25T15:23:43.274Z,46.43
2023-01-25T15:26:19.431Z,40.23
2023-01-25T15:28:48.588Z,50.87
2023-01-25T15:31:21.260Z,54.90
2023-01-25T15:33:50.474Z,43.93
2023-01-25T15:36:20.586Z,45.93
2023-01-25T15:38:49.459Z,44.03
2023-01-25T15:41:18.818Z,50.57
2023-01-25T15:43:48.766Z,49.03
2023-01-25T15:46:23.034Z,45.77
2023-01-25T15:48:53.214Z,43.37
2023-01-25T15:51:22.616Z,46.17
2023-01-25T15:53:51.608Z,54.67
2023-01-25T15:56:22.719Z,58.47
2023-01-25T15:58:53.367Z,47.17
2023-01-25T16:01:29.705Z,52.97
2023-01-25T16:03:59.895Z,50.90
2023-01-25T16:06:40.096Z,42.77
2023-01-25T16:09:16.277Z,47.13
2023-01-25T16:11:45.639Z,52.60
2023-01-25T16:14:14.276Z,41.13
2023-01-25T16:16:47.069Z,45.63
2023-01-25T16:19:16.908Z,52.73
2023-01-25T16:21:45.645Z,43.70
2023-01-25T16:24:14.819Z,39.93
2023-01-25T16:26:46.704Z,48.20
2023-01-25T16:29:15.382Z,46.10
2023-01-25T16:31:45.531Z,43.53
2023-01-25T16:34:14.395Z,43.53
2023-01-25T16:36:47.837Z,47.83
2023-01-25T16:39:20.101Z,50.93
2023-01-25T16:41:49.678Z,44.63
2023-01-25T16:44:19.057Z,53.50
2023-01-25T16:46:50.451Z,40.30
2023-01-25T16:49:20.926Z,46.97
2023-01-25T16:51:50.724Z,45.97
2023-01-25T16:54:20.663Z,49.77
2023-01-25T16:56:50.935Z,52.93
2023-01-25T16:59:20.174Z,54.70
2023-01-25T17:01:50.600Z,48.63
2023-01-25T17:04:19.556Z,49.53
2023-01-25T17:06:50.427Z,56.03
2023-01-25T17:09:24.187Z,53.67
2023-01-25T17:11:54.248Z,58.53
2023-01-25T17:14:23.737Z,57.67
2023-01-25T17:16:54.463Z,53.63
2023-01-25T17:19:23.670Z,56.33
2023-01-25T17:21:52.359Z,52.20
2023-01-25T17:24:22.442Z,62.00
2023-01-25T17:26:51.977Z,62.50
2023-01-25T17:29:21.982Z,48.57
2023-01-25T17:31:50.847Z,53.10
2023-01-25T17:34:22.000Z,64.50
2023-01-25T17:36:52.692Z,50.87
2023-01-25T17:39:22.738Z,61.03
2023-01-25T17:41:52.415Z,54.33
2023-01-25T17:44:22.846Z,53.93
2023-01-25T17:46:53.007Z,47.00
2023-01-25T17:49:24.520Z,58.67
2023-01-25T17:51:53.473Z,57.27
2023-01-25T17:54:22.279Z,49.80
2023-01-25T17:56:51.277Z,47.87
2023-01-25T17:59:20.248Z,69.93
2023-01-25T18:01:49.404Z,59.83
2023-01-25T18:04:19.275Z,61.23
2023-01-25T18:06:49.542Z,60.00
2023-01-25T18:09:18.359Z,54.60
2023-01-25T18:11:48.061Z,62.03
2023-01-25T18:14:18.734Z,52.77
2023-01-25T18:16:47.618Z,71.43
2023-01-25T18:19:16.415Z,56.33
2023-01-25T18:21:45.017Z,70.27
2023-01-25T18:24:31.950Z,56.30
2023-01-25T18:27:05.128Z,50.53
2023-01-25T18:29:45.721Z,56.80
2023-01-25T18:32:15.415Z,46.57
2023-01-25T18:34:44.469Z,61.20
2023-01-25T18:37:23.459Z,49.53
2023-01-25T18:39:55.521Z,52.10
2023-01-25T18:42:26.387Z,50.83
2023-01-25T18:44:55.338Z,58.00
2023-01-25T18:47:25.092Z,56.43
2023-01-25T18:49:54.796Z,58.90
2023-01-25T18:52:24.849Z,52.73
2023-01-25T18:54:55.502Z,52.93
2023-01-25T18:57:25.019Z,62.10
2023-01-25T18:59:54.588Z,56.37
2023-01-25T19:02:24.082Z,57.70
2023-01-25T19:04:52.862Z,56.77
2023-01-25T19:07:21.541Z,65.27
2023-01-25T19:09:50.444Z,56.87
2023-01-25T19:12:20.758Z,51.17
2023-01-25T19:14:49.808Z,57.47
2023-01-25T19:17:18.873Z,62.53
2023-01-25T19:19:47.732Z,63.87
2023-01-25T19:22:16.622Z,50.03
2023-01-25T19:24:45.299Z,54.80
2023-01-25T19:27:14.241Z,54.03
2023-01-25T19:29:44.608Z,62.93
2023-01-25T19:32:13.538Z,69.80
2023-01-25T19:34:42.261Z,65.93
2023-01-25T19:37:10.972Z,55.80
2023-01-25T19:39:39.696Z,61.97
2023-01-25T19:42:08.532Z,56.93
2023-01-25T19:44:37.565Z,62.97
2023-01-25T19:47:07.763Z,63.63
2023-01-25T19:49:36.592Z,70.50
2023-01-25T19:52:14.553Z,60.10
2023-01-25T19:54:43.267Z,63.27
2023-01-25T19:57:12.068Z,52.03
2023-01-25T19:59:43.564Z,63.67
2023-01-25T20:02:13.942Z,70.70
2023-01-25T20:04:42.652Z,73.13
2023-01-25T20:07:13.535Z,52.23
2023-01-25T20:09:45.150Z,61.23
2023-01-25T20:12:14.212Z,56.27
2023-01-25T20:14:43.589Z,57.37
2023-01-25T20:17:14.293Z,59.53
2023-01-25T20:19:44.049Z,51.47
2023-01-25T20:22:14.015Z,49.13
2023-01-25T20:24:43.297Z,66.80
2023-01-25T20:27:12.173Z,70.63
2023-01-25T20:29:41.174Z,59.97
2023-01-25T20:32:17.097Z,60.40
2023-01-25T20:35:06.521Z,64.43
2023-01-25T20:37:35.275Z,67.70
2023-01-25T20:40:04.108Z,54.97
2023-01-25T20:42:32.845Z,59.23
2023-01-25T20:45:01.784Z,61.87
2023-01-25T20:47:30.605Z,53.97
2023-01-25T20:50:00.771Z,57.00
2023-01-25T20:52:29.530Z,52.40
2023-01-25T20:54:58.679Z,57.30
2023-01-25T20:57:30.503Z,61.67
2023-01-25T20:59:59.340Z,67.47
2023-01-25T21:02:28.124Z,66.57
2023-01-25T21:04:56.831Z,77.70
2023-01-25T21:07:27.124Z,69.77
2023-01-25T21:09:56.785Z,74.23
2023-01-25T21:12:27.916Z,67.60
2023-01-25T21:14:58.757Z,63.27
2023-01-25T21:17:27.526Z,58.20
2023-01-25T21:19:58.040Z,71.03
2023-01-25T21:22:29.941Z,72.70
2023-01-25T21:24:58.878Z,70.77
2023-01-25T21:27:29.685Z,62.20
2023-01-25T21:29:58.797Z,56.83
2023-01-25T21:32:27.779Z,55.47
2023-01-25T21:34:56.538Z,74.90
2023-01-25T21:37:26.507Z,73.23
2023-01-25T21:39:56.649Z,67.37
2023-01-25T21:42:28.297Z,78.63
2023-01-25T21:45:14.462Z,98.17
2023-01-25T21:47:43.555Z,53.40
2023-01-25T21:50:33.097Z,63.23
2023-01-25T21:53:03.795Z,65.97
2023-01-25T21:55:34.082Z,72.80
2023-01-25T21:58:03.168Z,80.23
2023-01-25T22:00:32.240Z,70.03
2023-01-25T22:03:04.336Z,56.47
2023-01-25T22:05:33.479Z,54.40
2023-01-25T22:08:02.667Z,62.93
2023-01-25T22:10:31.808Z,72.13
2023-01-25T22:13:03.698Z,67.13
2023-01-25T22:15:33.967Z,57.00
2023-01-25T22:18:03.114Z,59.80
2023-01-25T22:20:32.093Z,66.87
2023-01-25T22:23:08.629Z,65.80
2023-01-25T22:25:43.205Z,66.17
2023-01-25T22:28:19.389Z,58.43
2023-01-25T22:30:48.864Z,67.53
2023-01-25T22:33:18.716Z,74.07
2023-01-25T22:35:47.620Z,73.80
2023-01-25T22:38:19.378Z,72.87
2023-01-25T22:40:48.266Z,73.77
2023-01-25T22:43:18.693Z,66.07
2023-01-25T22:45:52.335Z,73.23
2023-01-25T22:48:24.379Z,70.33
2023-01-25T22:50:53.384Z,61.17
2023-01-25T22:53:23.337Z,59.70
2023-01-25T22:55:52.596Z,58.07
2023-01-25T22:58:23.491Z,66.83
2023-01-25T23:00:52.550Z,54.13
2023-01-25T23:03:21.594Z,63.20
2023-01-25T23:05:50.608Z,70.77
2023-01-25T23:08:19.480Z,66.27
2023-01-25T23:10:48.468Z,64.10
2023-01-25T23:13:17.442Z,60.13
2023-01-25T23:15:47.833Z,57.70
2023-01-25T23:18:34.029Z,62.10
2023-01-25T23:21:04.127Z,56.63
2023-01-25T23:23:35.869Z,68.53
2023-01-25T23:26:05.083Z,60.87
2023-01-25T23:28:33.909Z,83.40
2023-01-25T23:31:18.739Z,53.13
2023-01-25T23:33:50.570Z,62.63
2023-01-25T23:36:21.995Z,52.83
2023-01-25T23:38:51.610Z,62.33
2023-01-25T23:41:22.483Z,63.03
2023-01-25T23:43:51.417Z,55.00
2023-01-25T23:46:21.942Z,74.77
2023-01-25T23:48:51.222Z,53.50
2023-01-25T23:51:20.262Z,65.00
2023-01-25T23:53:49.225Z,50.27
2023-01-25T23:56:24.783Z,51.37
2023-01-25T23:58:54.028Z,59.30
